| Record Date MM/DD/YYYY | Record Time HH:MM:SS | Record Julian Date NNN day of the year | Air Temperature Max (Degrees Fahrenheit F) | Time Max Air Temperature HH:MM:SS This is the time of max air temp for the prior hour interval listed for record [Time]. | Air Temperature Min (Degrees Fahrenheit F) | Time Min Air Temperature HH:MM:SS This is the time of min air temp for the prior hour interval listed for record [Time]. | Air Temperature Observed (Degrees Fahrenheit F) This is an instantaneous reading at the record [Time]. | Relative Humidity Max (Percent) | Time Max Relative Humidity HH:MM:SS This is the time of max relative humidity for the prior hour interval listed for record [Time]. | Relative Humidity Min (Percent) | Time Min Relative Humidity HH:MM:SS This is the time of min relative humidity for the prior hour interval listed for record [Time]. | Relative Humidity Observed (Percent) This is an instantaneous reading at the record [Time]. | Precipitation (Inches n.nn) rain fall that occurred during the prior hour interval listed for record [Time]. | Wind Speed (Miles Per Hour) Resultant Speed that occurred during the prior hour interval listed for record [Time]. | Wind Direction (Degrees) Resultant Direction that occurred during the prior hour interval listed for record [Time]. | Solar Radiation (Langley's) that occurred during the prior hour interval listed for record [Time]. | Soil Temperature Average at 2 inch depth (Degrees Fahrenheit F) that occurred during the prior hour interval listed for record [Time]. | Soil Temperature Observed at 2 inch depth (Degrees Fahrenheit F) This is an instantaneous reading at the record [Time]. | Soil Temperature Average at 4 inch depth (Degrees Fahrenheit F) that occurred during the prior hour interval listed for record [Time]. | Soil Temperature Observed at 4 inch depth (Degrees Fahrenheit F) This is an instantaneous reading at the record [Time]. |
|---|---|---|---|---|---|---|---|---|---|---|---|---|---|---|---|---|---|---|---|---|
| 08/30/2026 | 0:00:00 | 242 | 74 | 23:00:00 | 73 | 23:46:05 | 74 | 98 | 23:57:03 | 95 | 23:00:04 | 97.5 | 0 | 0.0 | 100 | 0 | 83 | 82 | 84 | 83 |
| 08/30/2026 | 1:00:00 | 242 | 75 | 0:27:00 | 73 | 0:03:03 | 74 | 98 | 0:00:01 | 92 | 0:27:04 | 95 | 0 | 0.7 | 73 | 0 | 82 | 82 | 83 | 83 |
| 08/30/2026 | 2:00:00 | 242 | 75 | 1:14:00 | 74 | 1:59:04 | 74 | 96 | 1:59:05 | 94 | 1:23:00 | 95.7 | 0 | 0.9 | 73 | 0 | 82 | 82 | 83 | 83 |
| 08/30/2026 | 3:00:00 | 242 | 74 | 2:00:01 | 73 | 2:57:03 | 73 | 98 | 2:51:04 | 96 | 2:01:01 | 98.1 | 0 | 0.2 | 86 | 0 | 81 | 81 | 82 | 82 |
| 08/30/2026 | 4:00:00 | 242 | 73 | 3:14:03 | 72 | 3:41:00 | 72 | 99 | 3:55:04 | 98 | 3:30:05 | 98.6 | 0 | 0.4 | 105 | 0 | 81 | 81 | 82 | 82 |
| 08/30/2026 | 5:00:00 | 242 | 72 | 4:01:02 | 72 | 4:57:05 | 72 | 99 | 4:31:00 | 98 | 4:08:00 | 99 | 0 | 0.2 | 105 | 0 | 81 | 80 | 82 | 82 |
| 08/30/2026 | 6:00:00 | 242 | 73 | 5:59:03 | 72 | 5:00:00 | 73 | 99 | 5:08:02 | 99 | 5:31:05 | 98.8 | 0 | 0.9 | 103 | 1 | 80 | 80 | 81 | 81 |
| 08/30/2026 | 7:00:00 | 242 | 78 | 6:59:05 | 73 | 6:00:00 | 78 | 99 | 6:00:00 | 89 | 6:59:03 | 90 | 0 | 2.0 | 118 | 11 | 80 | 80 | 81 | 81 |
| 08/30/2026 | 8:00:00 | 242 | 82 | 7:59:04 | 78 | 7:00:00 | 82 | 91 | 7:00:02 | 80 | 7:55:02 | 80.2 | 0 | 2.9 | 162 | 27 | 81 | 81 | 81 | 81 |
| 08/30/2026 | 9:00:00 | 242 | 85 | 8:57:04 | 82 | 8:00:00 | 85 | 82 | 8:01:01 | 70 | 8:57:01 | 70.89 | 0 | 3.7 | 165 | 43 | 82 | 82 | 81 | 82 |
| 08/30/2026 | 10:00:00 | 242 | 89 | 9:54:00 | 85 | 9:03:00 | 88 | 74 | 9:03:01 | 60 | 9:59:04 | 64.79 | 0 | 3.7 | 154 | 58 | 83 | 84 | 82 | 82 |
| 08/30/2026 | 11:00:00 | 242 | 89 | 11:00:00 | 87 | 10:38:05 | 89 | 67 | 10:00:01 | 58 | 10:32:03 | 61.79 | 0 | 4.1 | 147 | 42 | 85 | 85 | 83 | 83 |
| 08/30/2026 | 12:00:00 | 242 | 91 | 11:34:04 | 89 | 11:45:01 | 90 | 63 | 11:10:01 | 54 | 11:38:04 | 59.25 | 0 | 5.2 | 133 | 65 | 86 | 86 | 84 | 84 |
| 08/30/2026 | 13:00:00 | 242 | 91 | 12:15:05 | 89 | 12:26:04 | 91 | 61 | 12:42:00 | 52 | 12:59:04 | 53.17 | 0 | 4.7 | 143 | 44 | 87 | 87 | 84 | 85 |
| 08/30/2026 | 14:00:00 | 242 | 93 | 13:59:04 | 90 | 13:35:04 | 93 | 58 | 13:07:01 | 47 | 13:54:03 | 50.05 | 0 | 3.8 | 134 | 49 | 87 | 87 | 85 | 85 |
| 08/30/2026 | 15:00:00 | 242 | 93 | 14:21:00 | 89 | 14:58:05 | 89 | 59 | 14:58:00 | 47 | 14:04:00 | 57.83 | 0 | 4.1 | 122 | 28 | 88 | 87 | 85 | 86 |
| 08/30/2026 | 16:00:00 | 242 | 92 | 15:43:05 | 88 | 15:30:04 | 89 | 59 | 15:33:00 | 50 | 15:45:02 | 54.24 | 0 | 3.4 | 128 | 12 | 87 | 87 | 86 | 86 |
| 08/30/2026 | 17:00:00 | 242 | 92 | 16:44:02 | 88 | 16:08:04 | 91 | 59 | 16:15:05 | 49 | 16:42:01 | 54.44 | 0 | 2.7 | 130 | 19 | 86 | 86 | 85 | 85 |
| 08/30/2026 | 18:00:00 | 242 | 91 | 17:09:03 | 88 | 17:59:01 | 88 | 60 | 17:59:04 | 51 | 17:13:03 | 58.31 | 0 | 2.4 | 157 | 11 | 86 | 86 | 85 | 85 |
| 08/30/2026 | 19:00:00 | 242 | 88 | 18:00:02 | 80 | 18:59:02 | 80 | 81 | 18:59:00 | 58 | 18:00:00 | 80.5 | 0 | 0.2 | 95 | 1 | 85 | 85 | 85 | 85 |
| 08/30/2026 | 20:00:00 | 242 | 80 | 19:00:00 | 76 | 20:00:00 | 76 | 91 | 20:00:00 | 81 | 19:00:00 | 90.9 | 0 | 0.0 | 74 | 0 | 84 | 84 | 85 | 84 |
| 08/30/2026 | 21:00:00 | 242 | 76 | 20:09:05 | 75 | 20:48:04 | 75 | 95 | 20:51:05 | 91 | 20:11:02 | 94.9 | 0 | 0.0 | 0 | 0 | 84 | 83 | 84 | 84 |
| 08/30/2026 | 22:00:00 | 242 | 75 | 21:03:01 | 74 | 21:33:01 | 74 | 96 | 21:31:03 | 95 | 21:11:01 | 94.9 | 0 | 0.0 | 0 | 0 | 83 | 83 | 84 | 83 |
| 08/30/2026 | 23:00:00 | 242 | 74 | 22:00:04 | 73 | 22:47:04 | 73 | 97 | 22:52:05 | 95 | 22:00:01 | 97.2 | 0 | 0.0 | 0 | 0 | 82 | 82 | 83 | 83 |
| 08/31/2026 | 0:00:00 | 243 | 74 | 23:17:03 | 73 | 23:06:03 | 73 | 97 | 23:08:04 | 94 | 23:29:03 | 95.7 | 0 | 0.4 | 119 | 0 | 82 | 82 | 83 | 83 |
| 08/31/2026 | 1:00:00 | 243 | 73 | 0:01:00 | 73 | 0:59:00 | 73 | 97 | 0:46:04 | 96 | 0:02:03 | 96.7 | 0 | 0.2 | 323 | 0 | 81 | 81 | 82 | 82 |
| 08/31/2026 | 2:00:00 | 243 | 73 | 1:00:01 | 72 | 1:52:04 | 72 | 98 | 1:40:00 | 97 | 1:00:02 | 98.1 | 0 | 0.3 | 6 | 0 | 81 | 81 | 82 | 82 |
| 08/31/2026 | 3:00:00 | 243 | 72 | 2:13:01 | 71 | 2:54:04 | 72 | 99 | 2:57:03 | 98 | 2:22:03 | 98.4 | 0 | 0.3 | 38 | 0 | 81 | 81 | 82 | 82 |
| 08/31/2026 | 4:00:00 | 243 | 72 | 3:00:00 | 71 | 3:55:00 | 71 | 99 | 3:58:01 | 98 | 3:02:01 | 99.1 | 0 | 0.1 | 134 | 0 | 80 | 80 | 81 | 81 |
| 08/31/2026 | 5:00:00 | 243 | 71 | 4:30:00 | 71 | 4:21:02 | 71 | 100 | 4:37:05 | 99 | 4:02:00 | 99.3 | 0 | 0.2 | 134 | 0 | 80 | 80 | 81 | 81 |
| 08/31/2026 | 6:00:00 | 243 | 71 | 5:59:04 | 71 | 5:31:00 | 71 | 99 | 5:09:01 | 99 | 5:46:00 | 99.3 | 0 | 0.2 | 134 | 1 | 80 | 80 | 81 | 81 |
| 08/31/2026 | 7:00:00 | 243 | 78 | 6:58:02 | 71 | 6:00:01 | 78 | 99 | 6:19:04 | 87 | 6:59:02 | 87.6 | 0 | 0.4 | 77 | 11 | 80 | 80 | 81 | 81 |
| 08/31/2026 | 8:00:00 | 243 | 83 | 7:57:00 | 78 | 7:00:00 | 83 | 88 | 7:00:02 | 75 | 7:57:02 | 76.52 | 0 | 1.6 | 82 | 27 | 80 | 81 | 81 | 81 |
| 08/31/2026 | 9:00:00 | 243 | 87 | 8:44:00 | 83 | 8:00:00 | 87 | 77 | 8:01:00 | 67 | 8:43:02 | 70.09 | 0 | 1.6 | 70 | 42 | 81 | 82 | 81 | 81 |
| 08/31/2026 | 10:00:00 | 243 | 90 | 9:28:02 | 87 | 9:10:03 | 90 | 71 | 9:06:03 | 59 | 9:28:04 | 62.03 | 0 | 2.1 | 134 | 56 | 83 | 84 | 82 | 82 |
| 08/31/2026 | 11:00:00 | 243 | 92 | 10:59:04 | 89 | 10:26:00 | 92 | 64 | 10:13:04 | 54 | 10:53:05 | 56.62 | 0 | 2.4 | 133 | 63 | 85 | 86 | 83 | 83 |
| 08/31/2026 | 12:00:00 | 243 | 94 | 12:00:00 | 91 | 11:03:01 | 94 | 60 | 11:03:02 | 50 | 11:35:01 | 53.1 | 0 | 3.2 | 88 | 77 | 87 | 88 | 84 | 84 |
| 08/31/2026 | 13:00:00 | 243 | 94 | 12:02:01 | 92 | 12:45:05 | 93 | 58 | 12:13:05 | 48 | 12:57:04 | 49.96 | 0 | 3.9 | 67 | 65 | 89 | 89 | 85 | 86 |
| 08/31/2026 | 14:00:00 | 243 | 95 | 13:32:01 | 93 | 13:50:05 | 95 | 55 | 13:03:01 | 44 | 13:36:03 | 48.69 | 0 | 3.9 | 113 | 63 | 90 | 90 | 86 | 86 |
| 08/31/2026 | 15:00:00 | 243 | 96 | 14:36:00 | 94 | 14:01:02 | 95 | 50 | 14:31:02 | 42 | 14:17:04 | 43.7 | 0 | 4.0 | 137 | 49 | 90 | 90 | 87 | 87 |
| 08/31/2026 | 16:00:00 | 243 | 96 | 15:45:01 | 94 | 15:16:02 | 95 | 47 | 15:00:04 | 42 | 15:43:02 | 44.86 | 0 | 4.4 | 132 | 28 | 90 | 90 | 87 | 87 |
| 08/31/2026 | 17:00:00 | 243 | 95 | 16:10:04 | 91 | 16:59:05 | 91 | 53 | 16:55:03 | 43 | 16:04:03 | 52.69 | 0 | 3.5 | 126 | 19 | 89 | 89 | 87 | 87 |
| 08/31/2026 | 18:00:00 | 243 | 91 | 17:00:00 | 89 | 18:00:00 | 89 | 63 | 17:59:03 | 52 | 17:00:02 | 63.03 | 0 | 1.4 | 109 | 7 | 88 | 88 | 87 | 87 |
| 08/31/2026 | 19:00:00 | 243 | 89 | 18:00:00 | 82 | 18:59:05 | 82 | 81 | 19:00:00 | 62 | 18:00:04 | 80.8 | 0 | 0.0 | 33 | 0 | 87 | 87 | 87 | 86 |
| 08/31/2026 | 20:00:00 | 243 | 82 | 19:00:01 | 79 | 19:56:01 | 79 | 88 | 20:00:00 | 81 | 19:00:00 | 88.3 | 0 | 0.0 | 0 | 0 | 86 | 86 | 86 | 86 |
| 08/31/2026 | 21:00:00 | 243 | 79 | 20:04:04 | 77 | 20:58:01 | 77 | 92 | 20:58:03 | 87 | 20:04:02 | 91.5 | 0 | 0.0 | 0 | 0 | 85 | 85 | 86 | 85 |
| 08/31/2026 | 22:00:00 | 243 | 77 | 21:00:01 | 76 | 21:59:03 | 76 | 94 | 21:41:04 | 92 | 21:00:00 | 93.5 | 0 | 0.2 | 185 | 0 | 85 | 84 | 85 | 85 |
| 08/31/2026 | 23:00:00 | 243 | 76 | 22:01:01 | 75 | 22:59:02 | 75 | 96 | 22:22:00 | 94 | 22:00:00 | 95.3 | 0 | 0.0 | 0 | 0 | 84 | 84 | 85 | 84 |
| 09/01/2026 | 0:00:00 | 244 | 75 | 23:00:00 | 74 | 23:56:01 | 74 | 98 | 23:59:01 | 95 | 23:01:05 | 97.7 | 0 | 0.0 | 0 | 0 | 83 | 83 | 84 | 84 |
| 09/01/2026 | 1:00:00 | 244 | 75 | 0:02:01 | 74 | 0:51:02 | 74 | 98 | 0:19:02 | 97 | 0:35:05 | 97.6 | 0 | 0.0 | 192 | 0 | 83 | 83 | 84 | 83 |
| 09/01/2026 | 2:00:00 | 244 | 74 | 1:14:03 | 73 | 1:55:05 | 73 | 98 | 1:57:02 | 97 | 1:20:02 | 98.3 | 0 | 0.1 | 192 | 0 | 82 | 82 | 83 | 83 |
| 09/01/2026 | 3:00:00 | 244 | 74 | 2:15:02 | 73 | 2:54:03 | 73 | 99 | 2:55:03 | 98 | 2:25:01 | 98.6 | 0 | 0.2 | 192 | 0 | 82 | 82 | 83 | 83 |
| 09/01/2026 | 4:00:00 | 244 | 73 | 3:00:00 | 72 | 3:56:00 | 72 | 99 | 3:21:01 | 98 | 3:30:00 | 99 | 0 | 0.2 | 192 | 0 | 81 | 81 | 83 | 82 |
| 09/01/2026 | 5:00:00 | 244 | 73 | 4:00:01 | 72 | 4:09:01 | 72 | 99 | 4:24:05 | 99 | 4:08:01 | 99.3 | 0 | 0.1 | 192 | 0 | 81 | 81 | 82 | 82 |
| 09/01/2026 | 6:00:00 | 244 | 73 | 6:00:00 | 72 | 5:40:05 | 73 | 100 | 5:49:00 | 99 | 5:09:02 | 99.8 | 0 | 0.0 | 192 | 1 | 81 | 81 | 82 | 82 |
| 09/01/2026 | 7:00:00 | 244 | 82 | 6:58:01 | 73 | 6:00:01 | 82 | 100 | 6:23:00 | 78 | 6:59:03 | 78.67 | 0 | 0.0 | 192 | 11 | 81 | 81 | 82 | 81 |
| 09/01/2026 | 8:00:00 | 244 | 86 | 8:00:00 | 81 | 7:13:02 | 86 | 82 | 7:04:03 | 71 | 7:59:04 | 72.08 | 0 | 0.5 | 174 | 27 | 81 | 82 | 82 | 82 |
| 09/01/2026 | 9:00:00 | 244 | 89 | 8:58:04 | 85 | 8:09:01 | 89 | 74 | 8:16:01 | 64 | 8:59:00 | 66.77 | 0 | 2.3 | 341 | 42 | 82 | 83 | 82 | 82 |
| 09/01/2026 | 10:00:00 | 244 | 92 | 9:53:04 | 88 | 9:03:01 | 92 | 67 | 9:00:01 | 52 | 9:58:05 | 54.05 | 0 | 2.4 | 260 | 55 | 84 | 85 | 83 | 83 |
| 09/01/2026 | 11:00:00 | 244 | 95 | 10:48:05 | 92 | 10:11:01 | 94 | 58 | 10:14:05 | 47 | 10:55:02 | 48.71 | 0 | 2.3 | 230 | 70 | 86 | 87 | 83 | 84 |
| 09/01/2026 | 12:00:00 | 244 | 95 | 11:07:00 | 92 | 11:47:04 | 94 | 55 | 11:12:03 | 46 | 11:20:05 | 48.66 | 0 | 3.4 | 107 | 57 | 88 | 89 | 85 | 85 |
| 09/01/2026 | 13:00:00 | 244 | 96 | 12:50:03 | 93 | 12:08:04 | 95 | 56 | 12:59:00 | 44 | 12:44:03 | 48.14 | 0 | 3.5 | 110 | 60 | 89 | 89 | 86 | 86 |
| 09/01/2026 | 14:00:00 | 244 | 97 | 13:09:04 | 93 | 13:24:05 | 97 | 52 | 13:54:04 | 41 | 13:49:05 | 45.13 | 0 | 4.2 | 137 | 57 | 90 | 90 | 86 | 87 |
| 09/01/2026 | 15:00:00 | 244 | 98 | 14:38:03 | 96 | 14:10:03 | 97 | 47 | 14:00:01 | 37 | 14:58:05 | 39.53 | 0 | 4.1 | 154 | 48 | 90 | 90 | 87 | 87 |
| 09/01/2026 | 16:00:00 | 244 | 98 | 15:06:04 | 97 | 15:52:01 | 97 | 43 | 15:53:03 | 36 | 15:15:00 | 40.37 | 0 | 3.9 | 126 | 36 | 90 | 90 | 87 | 88 |
| 09/01/2026 | 17:00:00 | 244 | 98 | 16:28:01 | 94 | 16:59:04 | 94 | 48 | 16:59:01 | 38 | 16:08:05 | 47.32 | 0 | 3.5 | 116 | 23 | 90 | 89 | 88 | 88 |
| 09/01/2026 | 18:00:00 | 244 | 94 | 17:17:04 | 90 | 18:00:00 | 90 | 60 | 17:56:01 | 46 | 17:22:04 | 56.65 | 0 | 1.0 | 70 | 9 | 89 | 88 | 88 | 87 |
| 09/01/2026 | 19:00:00 | 244 | 91 | 18:00:00 | 82 | 18:58:01 | 83 | 79 | 18:55:05 | 56 | 18:00:01 | 75 | 0 | 0.1 | 54 | 0 | 88 | 87 | 87 | 87 |
| 09/01/2026 | 20:00:00 | 244 | 83 | 19:00:00 | 79 | 19:57:02 | 79 | 87 | 19:48:03 | 74 | 19:03:00 | 85 | 0 | 0.0 | 32 | 0 | 87 | 86 | 87 | 86 |
| 09/01/2026 | 21:00:00 | 244 | 79 | 20:00:04 | 78 | 20:54:04 | 78 | 89 | 20:57:00 | 85 | 20:00:00 | 88.5 | 0 | 0.1 | 76 | 0 | 86 | 86 | 86 | 86 |
| 09/01/2026 | 22:00:00 | 244 | 79 | 21:11:02 | 77 | 21:50:03 | 78 | 89 | 21:39:04 | 85 | 21:10:03 | 88.5 | 0 | 0.6 | 76 | 0 | 85 | 85 | 86 | 85 |
| 09/01/2026 | 23:00:00 | 244 | 78 | 22:00:01 | 76 | 22:47:05 | 76 | 94 | 22:54:04 | 88 | 22:00:04 | 92.6 | 0 | 0.1 | 69 | 0 | 85 | 84 | 85 | 85 |
| 09/02/2026 | 0:00:00 | 245 | 76 | 23:03:01 | 75 | 23:55:01 | 75 | 95 | 0:00:00 | 92 | 23:02:05 | 94.8 | 0 | 0.0 | 75 | 0 | 84 | 84 | 85 | 84 |
| 09/02/2026 | 1:00:00 | 245 | 75 | 0:19:00 | 74 | 0:49:05 | 75 | 96 | 0:52:01 | 95 | 0:19:05 | 95.1 | 0 | 0.2 | 75 | 0 | 83 | 83 | 84 | 84 |
| 09/02/2026 | 2:00:00 | 245 | 75 | 1:00:00 | 73 | 1:57:05 | 73 | 97 | 1:59:04 | 95 | 1:01:01 | 97.1 | 0 | 0.0 | 0 | 0 | 83 | 83 | 84 | 84 |
| 09/02/2026 | 3:00:00 | 245 | 74 | 2:04:01 | 73 | 2:28:01 | 73 | 98 | 2:56:05 | 97 | 2:23:04 | 97.3 | 0 | 0.0 | 75 | 0 | 82 | 82 | 83 | 83 |
| 09/02/2026 | 4:00:00 | 245 | 74 | 3:29:01 | 73 | 3:02:01 | 73 | 98 | 3:07:05 | 96 | 3:34:01 | 97.1 | 0 | 0.6 | 82 | 0 | 82 | 82 | 83 | 83 |
| 09/02/2026 | 5:00:00 | 245 | 73 | 4:00:03 | 72 | 4:59:02 | 72 | 98 | 4:56:03 | 96 | 4:32:02 | 97.8 | 0 | 0.0 | 103 | 0 | 82 | 81 | 83 | 82 |
| 09/02/2026 | 6:00:00 | 245 | 73 | 5:59:05 | 72 | 5:21:01 | 73 | 99 | 5:39:02 | 98 | 5:00:00 | 98.3 | 0 | 0.0 | 103 | 1 | 81 | 81 | 82 | 82 |
| 09/02/2026 | 7:00:00 | 245 | 80 | 6:59:05 | 73 | 6:00:00 | 80 | 98 | 6:00:01 | 85 | 6:38:01 | 85.4 | 0 | 0.1 | 78 | 11 | 81 | 81 | 82 | 82 |
| 09/02/2026 | 8:00:00 | 245 | 85 | 7:59:05 | 80 | 7:00:00 | 85 | 86 | 7:02:04 | 69 | 7:58:04 | 70.95 | 0 | 2.1 | 342 | 26 | 82 | 82 | 82 | 82 |
| 09/02/2026 | 9:00:00 | 245 | 90 | 9:00:00 | 85 | 8:00:02 | 90 | 73 | 8:02:02 | 59 | 8:56:03 | 62.06 | 0 | 2.8 | 316 | 42 | 83 | 83 | 82 | 82 |
| 09/02/2026 | 10:00:00 | 245 | 94 | 9:53:01 | 90 | 9:00:00 | 93 | 63 | 9:07:04 | 53 | 9:56:03 | 53.34 | 0 | 2.0 | 271 | 54 | 84 | 85 | 83 | 83 |
| 09/02/2026 | 11:00:00 | 245 | 96 | 10:59:04 | 93 | 10:09:03 | 96 | 57 | 10:01:02 | 42 | 10:53:01 | 42.35 | 0 | 3.0 | 149 | 66 | 86 | 87 | 84 | 84 |
| 09/02/2026 | 12:00:00 | 245 | 97 | 11:22:03 | 94 | 11:36:05 | 97 | 52 | 11:40:00 | 41 | 11:23:03 | 43.98 | 0 | 2.8 | 143 | 60 | 88 | 89 | 85 | 85 |
| 09/02/2026 | 13:00:00 | 245 | 98 | 12:03:04 | 95 | 12:57:00 | 95 | 49 | 12:01:00 | 42 | 12:35:05 | 46.22 | 0 | 3.3 | 107 | 63 | 89 | 90 | 86 | 86 |
| 09/02/2026 | 14:00:00 | 245 | 98 | 13:46:00 | 95 | 13:00:01 | 98 | 48 | 13:27:03 | 38 | 13:58:01 | 39.89 | 0 | 3.8 | 149 | 66 | 90 | 91 | 87 | 87 |
| 09/02/2026 | 15:00:00 | 245 | 99 | 14:43:03 | 97 | 14:35:01 | 98 | 45 | 14:01:03 | 35 | 14:54:03 | 38.89 | 0 | 4.7 | 121 | 44 | 91 | 91 | 87 | 88 |
| 09/02/2026 | 16:00:00 | 245 | 99 | 15:04:05 | 98 | 15:59:05 | 98 | 42 | 15:37:05 | 35 | 15:05:04 | 40.12 | 0 | 5.0 | 110 | 33 | 91 | 90 | 88 | 88 |
| 09/02/2026 | 17:00:00 | 245 | 98 | 16:00:00 | 97 | 16:48:02 | 97 | 44 | 16:51:03 | 39 | 16:06:01 | 41.51 | 0 | 4.5 | 120 | 20 | 90 | 89 | 88 | 88 |
| 09/02/2026 | 18:00:00 | 245 | 97 | 17:00:00 | 92 | 17:59:04 | 92 | 55 | 17:57:03 | 42 | 17:01:01 | 52.95 | 0 | 2.1 | 122 | 9 | 89 | 89 | 88 | 88 |
| 09/02/2026 | 19:00:00 | 245 | 92 | 18:00:00 | 83 | 18:59:04 | 83 | 74 | 18:59:05 | 53 | 18:01:05 | 74.38 | 0 | 0.2 | 121 | 0 | 88 | 88 | 87 | 87 |
| 09/02/2026 | 20:00:00 | 245 | 83 | 19:00:00 | 81 | 19:59:04 | 81 | 83 | 19:59:03 | 74 | 19:00:01 | 82.4 | 0 | 0.1 | 121 | 0 | 87 | 87 | 87 | 87 |
| 09/02/2026 | 21:00:00 | 245 | 81 | 20:00:00 | 80 | 20:45:00 | 80 | 85 | 20:44:01 | 82 | 20:50:01 | 83.5 | 0 | 0.4 | 117 | 0 | 86 | 86 | 86 | 86 |
| 09/02/2026 | 22:00:00 | 245 | 80 | 21:06:04 | 79 | 21:30:01 | 79 | 88 | 21:57:02 | 83 | 21:04:03 | 87.3 | 0 | 0.0 | 120 | 0 | 86 | 85 | 86 | 86 |
| 09/02/2026 | 23:00:00 | 245 | 79 | 22:00:02 | 77 | 23:00:00 | 77 | 91 | 22:59:05 | 87 | 22:01:02 | 90.6 | 0 | 0.0 | 120 | 0 | 85 | 85 | 85 | 85 |
| 09/03/2026 | 0:00:00 | 246 | 77 | 23:10:05 | 76 | 23:52:05 | 77 | 91 | 23:50:05 | 89 | 23:11:03 | 90.6 | 0 | 0.0 | 0 | 0 | 85 | 84 | 85 | 85 |
| 09/03/2026 | 1:00:00 | 246 | 77 | 0:00:03 | 76 | 0:48:02 | 76 | 93 | 0:43:03 | 91 | 0:16:02 | 92.5 | 0 | 0.1 | 119 | 0 | 84 | 84 | 85 | 84 |
| 09/03/2026 | 2:00:00 | 246 | 76 | 1:00:02 | 75 | 1:59:01 | 75 | 96 | 1:57:03 | 93 | 1:00:00 | 95.5 | 0 | 0.1 | 119 | 0 | 84 | 83 | 84 | 84 |
| 09/03/2026 | 3:00:00 | 246 | 75 | 2:22:00 | 75 | 2:01:01 | 75 | 96 | 2:46:03 | 95 | 2:28:00 | 95.9 | 0 | 0.1 | 119 | 0 | 83 | 83 | 84 | 84 |
| 09/03/2026 | 4:00:00 | 246 | 75 | 3:32:05 | 75 | 3:57:03 | 75 | 97 | 3:58:03 | 95 | 3:37:03 | 96.4 | 0 | 0.0 | 119 | 0 | 83 | 83 | 84 | 83 |
| 09/03/2026 | 5:00:00 | 246 | 75 | 4:13:02 | 74 | 4:33:03 | 74 | 97 | 4:42:04 | 96 | 4:00:01 | 96.8 | 0 | 0.2 | 119 | 0 | 82 | 82 | 83 | 83 |
| 09/03/2026 | 6:00:00 | 246 | 75 | 5:59:03 | 74 | 5:15:04 | 75 | 98 | 5:23:05 | 96 | 6:00:00 | 96.1 | 0 | 0.3 | 119 | 1 | 82 | 82 | 83 | 83 |
| 09/03/2026 | 7:00:00 | 246 | 82 | 6:59:00 | 75 | 6:00:00 | 82 | 96 | 6:00:01 | 79 | 7:00:00 | 79.34 | 0 | 0.7 | 112 | 11 | 82 | 82 | 83 | 83 |
| 09/03/2026 | 8:00:00 | 246 | 87 | 7:57:04 | 82 | 7:00:04 | 87 | 81 | 7:06:00 | 68 | 7:58:04 | 70.09 | 0 | 1.4 | 96 | 25 | 82 | 83 | 83 | 83 |
| 09/03/2026 | 9:00:00 | 246 | 92 | 8:56:03 | 87 | 8:00:05 | 91 | 72 | 8:07:01 | 57 | 8:57:00 | 58.61 | 0 | 2.2 | 88 | 41 | 83 | 84 | 83 | 83 |
| 09/03/2026 | 10:00:00 | 246 | 95 | 9:56:05 | 91 | 9:03:04 | 94 | 60 | 9:00:02 | 50 | 9:57:01 | 54.02 | 0 | 3.0 | 73 | 54 | 85 | 86 | 83 | 84 |
| 09/03/2026 | 11:00:00 | 246 | 96 | 10:34:05 | 94 | 10:03:00 | 96 | 57 | 10:03:05 | 46 | 10:59:05 | 46.32 | 0 | 3.2 | 78 | 64 | 87 | 88 | 84 | 85 |
| 09/03/2026 | 12:00:00 | 246 | 98 | 11:57:03 | 96 | 11:00:03 | 98 | 52 | 11:02:03 | 41 | 11:58:02 | 42.45 | 0 | 4.2 | 80 | 73 | 88 | 89 | 85 | 86 |
| 09/03/2026 | 13:00:00 | 246 | 99 | 12:58:04 | 96 | 12:17:03 | 98 | 47 | 12:41:05 | 40 | 12:57:00 | 40.64 | 0 | 5.1 | 137 | 68 | 90 | 90 | 86 | 87 |
| 09/03/2026 | 14:00:00 | 246 | 99 | 13:03:01 | 96 | 13:52:02 | 98 | 47 | 13:53:01 | 39 | 13:04:00 | 41.34 | 0 | 4.7 | 124 | 38 | 90 | 90 | 87 | 87 |
| 09/03/2026 | 15:00:00 | 246 | 99 | 14:59:02 | 98 | 14:00:00 | 99 | 45 | 14:00:05 | 37 | 14:12:05 | 39.42 | 0 | 4.4 | 108 | 49 | 90 | 90 | 88 | 88 |
| 09/03/2026 | 16:00:00 | 246 | 100 | 15:14:01 | 94 | 15:59:05 | 94 | 48 | 15:58:01 | 37 | 15:10:00 | 46.98 | 0 | 3.4 | 119 | 23 | 91 | 90 | 88 | 88 |
| 09/03/2026 | 17:00:00 | 246 | 96 | 16:45:04 | 91 | 16:59:05 | 91 | 55 | 16:59:03 | 46 | 16:47:00 | 54.82 | 0 | 2.5 | 102 | 11 | 90 | 89 | 88 | 88 |
| 09/03/2026 | 18:00:00 | 246 | 91 | 17:00:00 | 85 | 17:56:03 | 86 | 63 | 17:53:03 | 53 | 17:01:01 | 61.2 | 0 | 3.4 | 60 | 4 | 89 | 88 | 88 | 88 |
| 09/03/2026 | 19:00:00 | 246 | 86 | 18:02:00 | 81 | 18:58:01 | 81 | 77 | 18:56:04 | 61 | 18:00:02 | 76.93 | 0 | 0.2 | 346 | 0 | 88 | 87 | 87 | 87 |
| 09/03/2026 | 20:00:00 | 246 | 81 | 19:00:01 | 79 | 19:59:05 | 79 | 84 | 19:58:05 | 76 | 19:01:02 | 83.6 | 0 | 0.0 | 346 | 0 | 87 | 86 | 87 | 87 |
| 09/03/2026 | 21:00:00 | 246 | 79 | 20:10:05 | 77 | 20:57:02 | 77 | 88 | 20:54:04 | 83 | 20:09:03 | 87.7 | 0 | 0.2 | 345 | 0 | 86 | 86 | 86 | 86 |
| 09/03/2026 | 22:00:00 | 246 | 77 | 21:00:00 | 76 | 21:42:03 | 77 | 90 | 21:46:00 | 88 | 21:00:02 | 89.4 | 0 | 0.1 | 345 | 0 | 85 | 85 | 86 | 86 |
| 09/03/2026 | 23:00:00 | 246 | 77 | 22:10:04 | 76 | 22:59:02 | 76 | 93 | 22:40:04 | 89 | 22:02:02 | 92.4 | 0 | 0.1 | 346 | 0 | 85 | 84 | 85 | 85 |
| 09/04/2026 | 0:00:00 | 247 | 76 | 23:08:05 | 75 | 23:53:01 | 75 | 94 | 23:57:02 | 92 | 23:35:01 | 93.5 | 0 | 0.2 | 346 | 0 | 84 | 84 | 85 | 85 |
| 09/04/2026 | 1:00:00 | 247 | 75 | 0:11:01 | 74 | 0:46:00 | 74 | 96 | 0:42:05 | 93 | 0:02:02 | 95.2 | 0 | 0.2 | 346 | 0 | 84 | 83 | 84 | 84 |
| 09/04/2026 | 2:00:00 | 247 | 75 | 1:31:05 | 74 | 1:19:04 | 74 | 96 | 1:25:05 | 95 | 1:34:04 | 95.5 | 0 | 0.1 | 345 | 0 | 83 | 83 | 84 | 84 |
| 09/04/2026 | 3:00:00 | 247 | 74 | 2:01:05 | 73 | 2:53:00 | 74 | 97 | 2:56:00 | 96 | 2:40:02 | 96.9 | 0 | 0.3 | 345 | 0 | 83 | 83 | 84 | 83 |
| 09/04/2026 | 4:00:00 | 247 | 75 | 3:59:02 | 74 | 3:10:03 | 75 | 97 | 3:11:05 | 95 | 3:59:04 | 94.9 | 0 | 0.1 | 344 | 0 | 82 | 82 | 83 | 83 |
| 09/04/2026 | 5:00:00 | 247 | 75 | 4:19:04 | 74 | 4:59:00 | 74 | 96 | 4:57:03 | 95 | 4:22:00 | 96.4 | 0 | 0.1 | 344 | 0 | 82 | 82 | 83 | 83 |
| 09/04/2026 | 6:00:00 | 247 | 75 | 5:59:02 | 74 | 5:10:00 | 75 | 97 | 5:19:01 | 96 | 5:59:04 | 96.1 | 0 | 0.0 | 344 | 1 | 82 | 82 | 83 | 83 |
| 09/04/2026 | 7:00:00 | 247 | 78 | 6:59:04 | 75 | 6:00:01 | 78 | 96 | 6:01:00 | 89 | 6:59:02 | 89.3 | 0 | 0.2 | 345 | 6 | 82 | 82 | 83 | 83 |
| 09/04/2026 | 8:00:00 | 247 | 86 | 7:54:03 | 78 | 7:00:00 | 85 | 89 | 7:02:04 | 71 | 8:00:00 | 71.25 | 0 | 0.9 | 87 | 26 | 82 | 83 | 83 | 83 |
| 09/04/2026 | 9:00:00 | 247 | 90 | 9:00:00 | 85 | 8:02:02 | 90 | 74 | 8:05:02 | 64 | 8:59:04 | 67.13 | 0 | 1.5 | 82 | 41 | 83 | 84 | 83 | 83 |
| 09/04/2026 | 10:00:00 | 247 | 93 | 9:59:05 | 90 | 9:00:00 | 93 | 67 | 9:01:03 | 53 | 9:46:05 | 54.66 | 0 | 2.6 | 90 | 53 | 85 | 86 | 83 | 84 |
| 09/04/2026 | 11:00:00 | 247 | 96 | 10:56:04 | 93 | 10:00:00 | 95 | 60 | 10:36:05 | 48 | 10:56:05 | 50.58 | 0 | 3.6 | 110 | 64 | 87 | 88 | 84 | 85 |
| 09/04/2026 | 12:00:00 | 247 | 97 | 11:23:03 | 87 | 11:52:03 | 88 | 66 | 11:52:03 | 45 | 11:24:02 | 64.98 | 0 | 5.4 | 101 | 41 | 88 | 89 | 85 | 86 |
| 09/04/2026 | 13:00:00 | 247 | 91 | 12:54:03 | 88 | 12:06:02 | 90 | 66 | 12:00:01 | 57 | 12:50:02 | 58.67 | 0 | 5.3 | 265 | 40 | 88 | 89 | 86 | 86 |
| 09/04/2026 | 14:00:00 | 247 | 92 | 13:59:03 | 89 | 13:36:01 | 92 | 65 | 13:37:05 | 57 | 13:59:04 | 57.33 | 0 | 5.5 | 302 | 31 | 89 | 89 | 87 | 87 |
| 09/04/2026 | 15:00:00 | 247 | 96 | 14:55:03 | 92 | 14:00:01 | 96 | 60 | 14:14:02 | 45 | 14:56:02 | 46.18 | 0 | 2.9 | 321 | 30 | 89 | 89 | 87 | 87 |
| 09/04/2026 | 16:00:00 | 247 | 98 | 15:20:04 | 96 | 15:01:05 | 97 | 49 | 15:02:05 | 43 | 15:19:02 | 43.9 | 0 | 1.9 | 107 | 26 | 89 | 89 | 87 | 87 |
| 09/04/2026 | 17:00:00 | 247 | 97 | 16:06:00 | 97 | 17:00:00 | 97 | 47 | 16:00:02 | 41 | 16:12:00 | 44.56 | 0 | 3.2 | 105 | 17 | 89 | 89 | 87 | 87 |
| 09/04/2026 | 18:00:00 | 247 | 97 | 17:00:00 | 91 | 18:00:00 | 91 | 62 | 18:00:00 | 44 | 17:02:02 | 61.66 | 0 | 1.6 | 123 | 7 | 89 | 88 | 87 | 87 |
| 09/04/2026 | 19:00:00 | 247 | 91 | 18:00:00 | 84 | 18:51:00 | 84 | 77 | 18:48:00 | 61 | 18:00:03 | 75.25 | 0 | 0.4 | 131 | 0 | 88 | 87 | 87 | 87 |
| 09/04/2026 | 20:00:00 | 247 | 84 | 19:05:05 | 81 | 20:00:00 | 81 | 81 | 19:59:05 | 74 | 19:04:04 | 81.3 | 0 | 0.4 | 37 | 0 | 87 | 86 | 87 | 86 |
| 09/04/2026 | 21:00:00 | 247 | 82 | 20:00:00 | 79 | 20:55:03 | 81 | 85 | 20:55:00 | 74 | 21:00:00 | 74.12 | 0 | 0.8 | 174 | 0 | 86 | 86 | 86 | 86 |
| 09/04/2026 | 22:00:00 | 247 | 84 | 21:34:02 | 81 | 21:00:00 | 83 | 79 | 21:56:03 | 69 | 21:16:04 | 78.89 | 0 | 3.8 | 203 | 0 | 85 | 85 | 86 | 85 |
| 09/04/2026 | 23:00:00 | 247 | 83 | 22:01:03 | 81 | 22:58:00 | 81 | 85 | 22:58:04 | 79 | 22:01:02 | 84.4 | 0 | 4.9 | 228 | 0 | 85 | 84 | 85 | 85 |
| 09/05/2026 | 0:00:00 | 248 | 81 | 23:00:04 | 80 | 23:47:03 | 80 | 85 | 23:12:03 | 83 | 23:38:00 | 83 | 0 | 4.8 | 244 | 0 | 84 | 84 | 85 | 85 |
| 09/05/2026 | 1:00:00 | 248 | 80 | 0:00:00 | 79 | 0:59:00 | 79 | 83 | 0:05:01 | 82 | 0:38:03 | 82.6 | 0 | 3.5 | 265 | 0 | 84 | 84 | 84 | 84 |
| 09/05/2026 | 2:00:00 | 248 | 79 | 1:00:00 | 77 | 1:40:03 | 78 | 89 | 1:41:05 | 83 | 1:00:00 | 86.1 | 0 | 3.0 | 295 | 0 | 83 | 83 | 84 | 84 |
| 09/05/2026 | 3:00:00 | 248 | 78 | 2:00:01 | 76 | 2:34:05 | 77 | 90 | 2:37:00 | 86 | 2:00:01 | 86.7 | 0 | 2.3 | 286 | 0 | 83 | 83 | 84 | 83 |
| 09/05/2026 | 4:00:00 | 248 | 77 | 3:00:03 | 76 | 3:37:00 | 76 | 91 | 3:40:05 | 87 | 3:00:01 | 90.6 | 0 | 1.7 | 296 | 0 | 83 | 82 | 83 | 83 |
| 09/05/2026 | 5:00:00 | 248 | 76 | 4:00:04 | 75 | 4:16:03 | 75 | 93 | 4:22:03 | 90 | 4:02:03 | 91.3 | 0 | 0.9 | 323 | 0 | 82 | 82 | 83 | 83 |
| 09/05/2026 | 6:00:00 | 248 | 75 | 5:04:03 | 74 | 5:41:00 | 75 | 94 | 5:43:01 | 91 | 5:00:03 | 93.8 | 0 | 1.3 | 331 | 0 | 82 | 82 | 83 | 83 |
| 09/05/2026 | 7:00:00 | 248 | 80 | 6:59:04 | 75 | 6:00:00 | 80 | 94 | 6:00:02 | 84 | 6:57:05 | 84.2 | 0 | 1.3 | 324 | 10 | 82 | 82 | 82 | 82 |
| 09/05/2026 | 8:00:00 | 248 | 83 | 7:59:00 | 80 | 7:00:01 | 83 | 86 | 7:04:05 | 77 | 7:59:05 | 77.24 | 0 | 4.5 | 328 | 26 | 82 | 82 | 82 | 82 |
| 09/05/2026 | 9:00:00 | 248 | 89 | 8:50:02 | 83 | 8:00:00 | 89 | 79 | 8:00:01 | 63 | 8:52:02 | 66.74 | 0 | 3.0 | 330 | 41 | 83 | 84 | 83 | 83 |
| 09/05/2026 | 10:00:00 | 248 | 93 | 9:55:01 | 89 | 9:05:01 | 92 | 66 | 9:06:04 | 57 | 9:55:04 | 58.03 | 0 | 2.9 | 51 | 54 | 84 | 85 | 83 | 84 |
| 09/05/2026 | 11:00:00 | 248 | 96 | 10:40:01 | 92 | 10:00:01 | 94 | 61 | 10:01:02 | 46 | 10:44:05 | 48.53 | 0 | 2.3 | 91 | 64 | 87 | 88 | 84 | 85 |
| 09/05/2026 | 12:00:00 | 248 | 98 | 11:40:03 | 94 | 11:00:01 | 97 | 52 | 11:01:03 | 40 | 11:34:01 | 42.49 | 0 | 3.4 | 85 | 68 | 89 | 90 | 85 | 86 |
| 09/05/2026 | 13:00:00 | 248 | 99 | 12:27:01 | 97 | 12:51:04 | 98 | 47 | 12:31:05 | 39 | 12:22:04 | 42.12 | 0 | 4.1 | 58 | 66 | 90 | 91 | 87 | 87 |
| 09/05/2026 | 14:00:00 | 248 | 100 | 13:49:02 | 98 | 13:01:04 | 99 | 46 | 13:14:02 | 37 | 13:40:00 | 39.59 | 0 | 3.5 | 77 | 64 | 91 | 92 | 88 | 88 |
| 09/05/2026 | 15:00:00 | 248 | 101 | 14:54:01 | 98 | 14:21:04 | 99 | 46 | 14:38:02 | 37 | 14:54:03 | 39.08 | 0 | 2.9 | 77 | 48 | 92 | 92 | 89 | 89 |
| 09/05/2026 | 16:00:00 | 248 | 99 | 15:00:04 | 93 | 15:22:00 | 95 | 54 | 15:24:04 | 38 | 15:02:00 | 51.3 | 0 | 7.5 | 196 | 24 | 92 | 91 | 89 | 89 |
| 09/05/2026 | 17:00:00 | 248 | 95 | 16:02:00 | 93 | 16:56:04 | 93 | 55 | 16:56:00 | 49 | 16:31:01 | 52.89 | 0 | 6.6 | 203 | 17 | 91 | 91 | 89 | 89 |
| 09/05/2026 | 18:00:00 | 248 | 93 | 17:02:02 | 90 | 18:00:00 | 90 | 57 | 17:45:00 | 52 | 17:00:05 | 56.39 | 0 | 6.2 | 201 | 8 | 90 | 89 | 89 | 89 |
| 09/05/2026 | 19:00:00 | 248 | 90 | 18:00:00 | 87 | 18:59:01 | 87 | 63 | 18:57:00 | 56 | 18:00:01 | 60.9 | 0 | 4.6 | 220 | 0 | 89 | 88 | 88 | 88 |
| 09/05/2026 | 20:00:00 | 248 | 87 | 19:00:04 | 85 | 19:48:04 | 85 | 66 | 19:44:04 | 61 | 19:02:03 | 65.59 | 0 | 3.8 | 230 | 0 | 88 | 87 | 88 | 87 |
| 09/05/2026 | 21:00:00 | 248 | 85 | 20:30:02 | 83 | 21:00:00 | 83 | 69 | 20:58:00 | 64 | 20:30:01 | 68.69 | 0 | 2.0 | 244 | 0 | 87 | 86 | 87 | 87 |
| 09/05/2026 | 22:00:00 | 248 | 84 | 21:16:04 | 83 | 21:30:05 | 83 | 71 | 21:30:02 | 67 | 21:16:04 | 69.87 | 0 | 2.6 | 244 | 0 | 86 | 86 | 86 | 86 |
| 09/05/2026 | 23:00:00 | 248 | 83 | 22:04:03 | 78 | 22:59:03 | 78 | 83 | 22:59:05 | 70 | 22:00:00 | 83.1 | 0 | 1.0 | 226 | 0 | 85 | 85 | 86 | 86 |
| 09/06/2026 | 0:00:00 | 249 | 78 | 23:00:02 | 77 | 23:47:02 | 77 | 88 | 23:47:03 | 83 | 23:00:00 | 88 | 0 | 0.5 | 77 | 0 | 85 | 85 | 85 | 85 |
| 09/06/2026 | 1:00:00 | 249 | 77 | 0:02:01 | 75 | 0:59:00 | 75 | 92 | 1:00:00 | 87 | 0:03:04 | 92.3 | 0 | 0.2 | 22 | 0 | 84 | 84 | 85 | 85 |
| 09/06/2026 | 2:00:00 | 249 | 76 | 1:39:03 | 75 | 1:59:04 | 75 | 94 | 1:16:02 | 91 | 1:51:02 | 93.2 | 0 | 0.6 | 343 | 0 | 84 | 84 | 85 | 84 |
| 09/06/2026 | 3:00:00 | 249 | 75 | 2:04:01 | 74 | 2:45:03 | 74 | 96 | 2:50:04 | 93 | 2:07:04 | 94.9 | 0 | 0.2 | 122 | 0 | 83 | 83 | 84 | 84 |
| 09/06/2026 | 4:00:00 | 249 | 75 | 3:53:04 | 74 | 3:31:03 | 75 | 96 | 3:35:00 | 94 | 3:56:05 | 94.6 | 0 | 0.5 | 329 | 0 | 83 | 83 | 84 | 84 |
| 09/06/2026 | 5:00:00 | 249 | 75 | 4:09:03 | 74 | 4:55:03 | 74 | 96 | 4:58:05 | 94 | 4:37:03 | 95.7 | 0 | 0.9 | 132 | 0 | 83 | 82 | 83 | 83 |
| 09/06/2026 | 6:00:00 | 249 | 75 | 5:57:03 | 74 | 5:13:05 | 75 | 96 | 5:21:00 | 92 | 5:58:03 | 92 | 0 | 1.3 | 121 | 0 | 82 | 82 | 83 | 83 |
| 09/06/2026 | 7:00:00 | 249 | 80 | 7:00:00 | 75 | 6:00:01 | 80 | 92 | 6:01:02 | 83 | 6:59:03 | 83.3 | 0 | 0.9 | 197 | 10 | 82 | 82 | 83 | 83 |
| 09/06/2026 | 8:00:00 | 249 | 84 | 7:59:05 | 80 | 7:04:05 | 84 | 84 | 7:00:04 | 74 | 7:55:01 | 74.32 | 0 | 2.6 | 194 | 24 | 82 | 83 | 83 | 83 |
| 09/06/2026 | 9:00:00 | 249 | 88 | 9:00:00 | 84 | 8:00:04 | 88 | 76 | 8:03:01 | 63 | 8:59:02 | 65.49 | 0 | 3.3 | 221 | 40 | 83 | 84 | 83 | 83 |
| 09/06/2026 | 10:00:00 | 249 | 92 | 9:58:05 | 88 | 9:02:05 | 92 | 68 | 9:10:00 | 57 | 9:59:02 | 57.24 | 0 | 2.7 | 264 | 54 | 85 | 86 | 84 | 84 |
| 09/06/2026 | 11:00:00 | 249 | 95 | 10:58:00 | 92 | 10:00:01 | 95 | 62 | 10:24:04 | 52 | 10:58:03 | 54.68 | 0 | 2.1 | 342 | 63 | 87 | 88 | 84 | 85 |
| Average | 84.91 | 82.19 | 83.58 | 78.07 | 70.45 | 74.05 | 0 | 1.84 | 19.09 | 85.06 | 85.08 | 84.56 | 84.54 | |||||||
| Total | 0 |